Time;durP1;ratioP1;P1;durP2;ratioP2;P2;SDS_P1;SDS_P2;PMS_P1;PMS_P2;Temp;Humidity;BMP_temperature;BMP_pressure;BME280_temperature;BME280_humidity;BME280_pressure;Samples;Min_cycle;Max_cycle;Signal;HPM_P1;HPM_P2
2021/08/21 00:01:23;;;;;;;10.90;9.90;;;;;;;21.93;52.74;94456.97;827679;71;31886;-78
2021/08/21 00:16:21;;;;;;;11.20;10.23;;;;;;;21.85;53.17;94470.59;827987;71;31718;-76
2021/08/21 00:31:17;;;;;;;9.80;9.00;;;;;;;21.71;53.35;94488.52;829739;71;30994;-79
2021/08/21 00:46:11;;;;;;;10.00;9.15;;;;;;;22.04;51.74;94496.42;828328;71;29178;-78
2021/08/21 01:01:23;;;;;;;10.18;9.13;;;;;;;21.87;51.97;94491.80;829062;71;28665;-77
2021/08/21 01:16:22;;;;;;;9.88;9.00;;;;;;;21.48;52.85;94487.22;828719;71;30183;-76
2021/08/21 01:31:25;;;;;;;11.43;10.43;;;;;;;21.29;54.22;94504.02;834574;71;32741;-76
2021/08/21 01:46:17;;;;;;;10.75;9.75;;;;;;;21.20;54.98;94499.69;828992;71;29746;-77
2021/08/21 01:47:21;;;;;;;10.82;9.90;;;;;;;21.15;55.25;94502.66;808639;72;26276;-77
2021/08/21 02:01:25;;;;;;;11.00;9.98;;;;;;;21.16;55.31;94505.52;828174;71;30291;-76
2021/08/21 02:16:29;;;;;;;11.25;10.25;;;;;;;21.00;55.71;94514.19;833987;71;30819;-79
2021/08/21 02:31:10;;;;;;;11.57;10.48;;;;;;;20.89;56.13;94512.67;834064;71;29706;-75
2021/08/21 02:46:24;;;;;;;11.10;10.00;;;;;;;20.70;56.61;94512.13;828242;71;30250;-77
2021/08/21 03:16:10;;;;;;;11.25;10.25;;;;;;;20.47;57.46;94526.67;828277;71;30240;-78
2021/08/21 03:31:08;;;;;;;12.10;10.90;;;;;;;20.34;57.90;94539.93;828378;71;29993;-78
2021/08/21 03:46:15;;;;;;;13.80;12.50;;;;;;;20.23;58.29;94543.67;833738;71;32734;-77
2021/08/21 04:01:12;;;;;;;15.38;13.88;;;;;;;20.32;57.79;94562.16;834791;71;32118;-77
2021/08/21 04:16:09;;;;;;;13.93;12.63;;;;;;;21.10;56.31;94572.89;833995;71;30818;-77
2021/08/21 04:31:08;;;;;;;19.02;14.50;;;;;;;21.94;54.43;94582.77;828363;71;30274;-77
2021/08/21 04:46:15;;;;;;;15.30;13.70;;;;;;;22.83;51.47;94590.54;827468;71;32977;-76
2021/08/21 05:01:14;;;;;;;11.93;10.90;;;;;;;24.23;49.00;94592.48;834009;71;33014;-75
2021/08/21 05:16:14;;;;;;;11.67;10.67;;;;;;;25.81;45.36;94597.95;827615;71;33275;-78
2021/08/21 05:31:15;;;;;;;11.40;10.30;;;;;;;26.89;43.70;94602.71;827378;71;32675;-77
2021/08/21 05:46:08;;;;;;;11.53;10.53;;;;;;;27.28;41.07;94605.84;830232;71;30151;-76
2021/08/21 06:01:28;;;;;;;12.10;10.90;;;;;;;25.90;42.31;94606.46;826762;71;32707;-74
2021/08/21 06:17:00;;;;;;;10.70;9.80;;;;;;;25.10;43.03;94602.57;834076;71;32795;-77
2021/08/21 06:31:23;;;;;;;11.20;10.20;;;;;;;25.01;45.13;94602.93;833934;71;32692;-77
2021/08/21 06:46:18;;;;;;;10.17;9.33;;;;;;;24.52;44.63;94590.23;828301;71;32841;-74
2021/08/21 07:01:11;;;;;;;9.30;8.50;;;;;;;24.45;44.77;94590.72;828754;71;30346;-74
2021/08/21 07:16:18;;;;;;;8.37;7.67;;;;;;;24.72;43.67;94592.06;828030;71;32736;-75
2021/08/21 07:31:08;;;;;;;7.23;6.63;;;;;;;25.16;42.03;94603.74;827993;71;30213;-75
2021/08/21 07:46:28;;;;;;;8.40;7.60;;;;;;;25.12;41.65;94605.64;833635;71;32758;-77
2021/08/21 08:01:24;;;;;;;8.73;7.87;;;;;;;26.01;40.47;94617.80;827350;71;31827;-75
2021/08/21 08:16:14;;;;;;;8.27;7.57;;;;;;;26.34;40.15;94609.92;827466;71;33200;-76
2021/08/21 08:31:16;;;;;;;7.27;6.57;;;;;;;26.97;38.72;94611.54;827288;71;31711;-75
2021/08/21 08:46:09;;;;;;;7.30;6.80;;;;;;;27.30;38.20;94620.28;828167;71;29187;-76
2021/08/21 09:16:17;;;;;;;7.13;6.63;;;;;;;28.64;36.42;94589.86;834025;71;32320;-77
2021/08/21 09:31:16;;;;;;;7.37;6.77;;;;;;;28.98;34.41;94578.30;834151;71;28693;-75
2021/08/21 09:46:15;;;;;;;7.63;6.83;;;;;;;29.07;33.47;94568.51;828281;71;31471;-76
2021/08/21 10:01:52;;;;;;;7.73;7.13;;;;;;;29.34;32.70;94566.48;829970;71;31833;-75
2021/08/21 10:16:24;;;;;;;7.97;7.37;;;;;;;29.72;32.08;94567.69;827570;71;31782;-76
2021/08/21 10:31:33;;;;;;;7.00;6.50;;;;;;;29.48;32.18;94551.97;834178;71;28451;-76
2021/08/21 10:46:15;;;;;;;8.10;7.27;;;;;;;29.41;32.27;94552.84;828400;71;28970;-77
2021/08/21 11:01:19;;;;;;;9.40;8.57;;;;;;;29.43;30.50;94535.63;827717;71;32648;-77
2021/08/21 11:16:51;;;;;;;8.80;8.10;;;;;;;29.88;30.25;94528.59;827858;71;32261;-76
2021/08/21 11:31:22;;;;;;;8.80;8.13;;;;;;;29.73;30.31;94522.65;829083;71;29016;-76
2021/08/21 11:46:26;;;;;;;9.23;8.53;;;;;;;30.06;29.55;94516.71;827761;71;31877;-76
2021/08/21 12:01:21;;;;;;;10.30;9.50;;;;;;;29.34;30.29;94513.77;828370;71;28981;-78
2021/08/21 12:16:18;;;;;;;9.30;8.60;;;;;;;29.95;30.31;94504.13;834313;71;28583;-76
2021/08/21 12:31:17;;;;;;;10.27;9.47;;;;;;;29.34;31.17;94501.00;835435;71;29005;-77
2021/08/21 12:46:20;;;;;;;10.17;9.40;;;;;;;28.35;32.96;94506.44;829306;71;28236;-77
2021/08/21 13:01:31;;;;;;;11.60;10.50;;;;;;;28.25;33.41;94518.11;833969;71;31853;-76
2021/08/21 13:16:45;;;;;;;11.70;10.80;;;;;;;28.09;33.14;94508.61;818931;70;31802;-75
2021/08/21 13:31:29;;;;;;;12.10;11.10;;;;;;;28.05;34.76;94505.77;827171;71;32734;-76
2021/08/21 13:46:17;;;;;;;11.60;10.70;;;;;;;28.01;35.23;94511.20;828175;71;28482;-76
2021/08/21 14:01:19;;;;;;;9.80;9.13;;;;;;;28.03;33.58;94508.86;833994;71;31880;-75
2021/08/21 14:16:11;;;;;;;10.13;9.23;;;;;;;27.91;33.24;94508.94;832131;71;29091;-75
2021/08/21 14:31:24;;;;;;;9.37;8.53;;;;;;;27.74;32.90;94523.16;828316;71;29008;-75
2021/08/21 14:46:21;;;;;;;8.17;7.50;;;;;;;27.47;32.66;94516.98;834102;71;29229;-76
2021/08/21 15:16:10;;;;;;;7.40;6.87;;;;;;;27.49;33.45;94539.50;828149;71;29459;-75
2021/08/21 15:31:07;;;;;;;31.70;19.10;;;;;;;;;;829201;71;28694;-76
2021/08/21 15:46:14;;;;;;;10.17;9.20;;;;;;;;;;827431;71;31814;-77
2021/08/21 16:01:10;;;;;;;7.77;7.07;;;;;;;27.61;33.62;94539.03;819813;71;29868;-76
2021/08/21 16:16:08;;;;;;;8.00;7.30;;;;;;;27.64;34.32;77043.13;828050;71;28400;-78
2021/08/21 16:31:15;;;;;;;8.80;8.10;;;;;;;27.69;34.86;94527.03;827021;71;32223;-76
2021/08/21 16:46:10;;;;;;;10.87;9.97;;;;;;;27.67;35.42;94542.84;833964;71;29460;-78
2021/08/21 17:01:07;;;;;;;8.27;7.57;;;;;;;;;;828118;71;27633;-74
2021/08/21 17:16:14;;;;;;;10.40;9.40;;;;;;;27.10;37.82;94558.75;827149;71;30788;-77
2021/08/21 17:31:09;;;;;;;10.20;9.30;;;;;;;;;;828218;71;28084;-78
2021/08/21 17:46:21;;;;;;;11.67;10.47;;;;;;;27.06;38.18;94590.33;828121;71;33282;-77
2021/08/21 18:01:16;;;;;;;160.37;141.87;;;;;;;27.00;39.66;123554.15;828347;71;32683;-77
2021/08/21 18:16:15;;;;;;;19.23;17.33;;;;;;;26.95;38.48;94617.31;833822;71;33265;-79
2021/08/21 18:31:19;;;;;;;10.47;9.57;;;;;;;26.56;38.19;94624.09;828113;71;30285;-78
2021/08/21 18:46:09;;;;;;;10.73;9.67;;;;;;;26.16;38.49;94629.52;828462;71;29743;-77
2021/08/21 19:01:24;;;;;;;11.80;10.70;;;;;;;25.69;39.12;94638.66;828295;71;29765;-75
2021/08/21 19:16:42;;;;;;;10.27;9.20;;;;;;;25.18;39.67;94649.80;835609;71;32705;-75
2021/08/21 19:31:26;;;;;;;9.63;8.70;;;;;;;24.85;41.43;94656.16;827127;71;32669;-74
2021/08/21 19:46:23;;;;;;;10.77;9.63;;;;;;;25.93;40.59;94672.94;834032;71;32775;-77
2021/08/21 20:01:15;;;;;;;9.83;8.93;;;;;;;26.22;39.68;94682.93;828383;71;30279;-77
2021/08/21 20:16:18;;;;;;;9.57;8.57;;;;;;;26.28;39.12;94673.35;827427;71;33166;-77
2021/08/21 20:31:14;;;;;;;9.40;8.20;;;;;;;26.33;39.25;94668.33;828289;71;32448;-76
2021/08/21 20:46:31;;;;;;;9.33;8.50;;;;;;;26.31;40.19;94673.91;820055;71;33209;-76
2021/08/21 21:16:09;;;;;;;8.50;7.80;;;;;;;26.08;39.92;94689.84;834285;71;30661;-78
2021/08/21 21:31:09;;;;;;;8.40;7.80;;;;;;;26.03;39.98;94690.80;828696;71;29851;-76
2021/08/21 21:46:08;;;;;;;8.50;7.70;;;;;;;25.91;40.02;94692.72;829621;71;29740;-77
2021/08/21 22:01:10;;;;;;;7.47;6.87;;;;;;;25.94;39.86;94700.00;828678;71;29346;-77
2021/08/21 22:16:08;;;;;;;7.90;6.60;;;;;;;25.89;39.93;94687.47;828408;71;29790;-78
2021/08/21 22:31:14;;;;;;;9.00;7.40;;;;;;;25.79;40.08;94684.95;827350;71;33255;-75
2021/08/21 22:46:18;;;;;;;8.50;7.73;;;;;;;25.83;40.04;94683.63;833968;71;32638;-75
2021/08/21 23:01:25;;;;;;;7.77;7.07;;;;;;;25.81;40.05;94677.27;827885;71;32822;-74
2021/08/21 23:16:18;;;;;;;7.53;6.90;;;;;;;25.81;40.02;94679.95;828226;71;29847;-76
2021/08/21 23:31:37;;;;;;;7.60;7.00;;;;;;;25.66;40.23;94673.03;827639;71;33146;-75
2021/08/21 23:46:21;;;;;;;6.50;6.00;;;;;;;25.56;40.47;94680.67;827596;71;33209;-76
